sensor_id;sensor_type;location;lat;lon;timestamp;P1;durP1;ratioP1;P2;durP2;ratioP2
5295;SDS011;2670;42.720;23.336;2022-07-29T00:01:24;15.27;;;12.00;;
5295;SDS011;2670;42.720;23.336;2022-07-29T00:03:51;17.03;;;11.87;;
5295;SDS011;2670;42.720;23.336;2022-07-29T00:06:18;18.80;;;12.90;;
5295;SDS011;2670;42.720;23.336;2022-07-29T00:08:45;17.10;;;12.20;;
5295;SDS011;2670;42.720;23.336;2022-07-29T00:11:12;17.20;;;12.30;;
5295;SDS011;2670;42.720;23.336;2022-07-29T00:13:39;14.83;;;12.13;;
5295;SDS011;2670;42.720;23.336;2022-07-29T00:16:06;16.57;;;12.80;;
5295;SDS011;2670;42.720;23.336;2022-07-29T00:18:34;15.27;;;12.17;;
5295;SDS011;2670;42.720;23.336;2022-07-29T00:21:01;16.30;;;11.67;;
5295;SDS011;2670;42.720;23.336;2022-07-29T00:23:28;17.57;;;14.17;;
5295;SDS011;2670;42.720;23.336;2022-07-29T00:25:54;20.03;;;14.03;;
5295;SDS011;2670;42.720;23.336;2022-07-29T00:28:21;16.47;;;13.50;;
5295;SDS011;2670;42.720;23.336;2022-07-29T00:30:48;19.30;;;13.73;;
5295;SDS011;2670;42.720;23.336;2022-07-29T00:33:15;16.13;;;13.60;;
5295;SDS011;2670;42.720;23.336;2022-07-29T00:35:43;17.90;;;14.73;;
5295;SDS011;2670;42.720;23.336;2022-07-29T00:38:09;18.27;;;13.90;;
5295;SDS011;2670;42.720;23.336;2022-07-29T00:40:36;23.10;;;14.73;;
5295;SDS011;2670;42.720;23.336;2022-07-29T00:43:03;18.50;;;14.60;;
5295;SDS011;2670;42.720;23.336;2022-07-29T00:45:30;21.83;;;15.30;;
5295;SDS011;2670;42.720;23.336;2022-07-29T00:47:57;19.90;;;15.13;;
5295;SDS011;2670;42.720;23.336;2022-07-29T00:50:23;28.47;;;17.57;;
5295;SDS011;2670;42.720;23.336;2022-07-29T00:52:52;21.20;;;16.70;;
5295;SDS011;2670;42.720;23.336;2022-07-29T00:55:20;20.73;;;16.07;;
5295;SDS011;2670;42.720;23.336;2022-07-29T00:57:47;17.50;;;15.10;;
5295;SDS011;2670;42.720;23.336;2022-07-29T01:00:15;18.73;;;15.10;;
5295;SDS011;2670;42.720;23.336;2022-07-29T01:02:44;20.47;;;15.03;;
5295;SDS011;2670;42.720;23.336;2022-07-29T01:05:13;20.83;;;16.70;;
5295;SDS011;2670;42.720;23.336;2022-07-29T01:07:42;18.70;;;15.13;;
5295;SDS011;2670;42.720;23.336;2022-07-29T01:10:12;18.90;;;16.17;;
5295;SDS011;2670;42.720;23.336;2022-07-29T01:12:40;18.80;;;16.30;;
5295;SDS011;2670;42.720;23.336;2022-07-29T01:15:09;22.20;;;17.23;;
5295;SDS011;2670;42.720;23.336;2022-07-29T01:17:39;24.93;;;18.03;;
5295;SDS011;2670;42.720;23.336;2022-07-29T01:20:12;25.40;;;17.50;;
5295;SDS011;2670;42.720;23.336;2022-07-29T01:22:52;27.00;;;17.10;;
5295;SDS011;2670;42.720;23.336;2022-07-29T01:25:37;21.47;;;17.07;;
5295;SDS011;2670;42.720;23.336;2022-07-29T01:28:39;18.60;;;15.83;;
5295;SDS011;2670;42.720;23.336;2022-07-29T01:31:13;21.27;;;15.93;;
5295;SDS011;2670;42.720;23.336;2022-07-29T01:33:45;18.77;;;15.80;;
5295;SDS011;2670;42.720;23.336;2022-07-29T01:36:22;20.93;;;16.13;;
5295;SDS011;2670;42.720;23.336;2022-07-29T01:38:54;27.10;;;17.47;;
5295;SDS011;2670;42.720;23.336;2022-07-29T01:41:29;22.40;;;17.13;;
5295;SDS011;2670;42.720;23.336;2022-07-29T01:44:01;24.50;;;15.67;;
5295;SDS011;2670;42.720;23.336;2022-07-29T01:46:31;34.37;;;17.00;;
5295;SDS011;2670;42.720;23.336;2022-07-29T01:49:02;21.07;;;17.30;;
5295;SDS011;2670;42.720;23.336;2022-07-29T01:51:35;22.20;;;17.30;;
5295;SDS011;2670;42.720;23.336;2022-07-29T01:54:08;23.47;;;17.23;;
5295;SDS011;2670;42.720;23.336;2022-07-29T01:56:40;18.53;;;15.00;;
5295;SDS011;2670;42.720;23.336;2022-07-29T01:59:11;24.00;;;16.90;;
5295;SDS011;2670;42.720;23.336;2022-07-29T02:01:38;23.13;;;16.30;;
5295;SDS011;2670;42.720;23.336;2022-07-29T02:04:07;19.93;;;15.57;;
5295;SDS011;2670;42.720;23.336;2022-07-29T02:06:37;20.47;;;15.80;;
5295;SDS011;2670;42.720;23.336;2022-07-29T02:09:07;28.73;;;17.53;;
5295;SDS011;2670;42.720;23.336;2022-07-29T02:11:35;20.43;;;14.80;;
5295;SDS011;2670;42.720;23.336;2022-07-29T02:14:04;21.80;;;15.90;;
5295;SDS011;2670;42.720;23.336;2022-07-29T02:16:34;20.80;;;15.50;;
5295;SDS011;2670;42.720;23.336;2022-07-29T02:19:05;25.33;;;17.30;;
5295;SDS011;2670;42.720;23.336;2022-07-29T02:21:35;22.13;;;18.00;;
5295;SDS011;2670;42.720;23.336;2022-07-29T02:24:02;22.60;;;17.20;;
5295;SDS011;2670;42.720;23.336;2022-07-29T02:26:30;26.23;;;18.07;;
5295;SDS011;2670;42.720;23.336;2022-07-29T02:28:59;22.83;;;17.87;;
5295;SDS011;2670;42.720;23.336;2022-07-29T02:31:28;25.93;;;18.93;;
5295;SDS011;2670;42.720;23.336;2022-07-29T02:33:58;25.60;;;17.20;;
5295;SDS011;2670;42.720;23.336;2022-07-29T02:36:28;26.50;;;16.67;;
5295;SDS011;2670;42.720;23.336;2022-07-29T02:38:57;24.70;;;17.70;;
5295;SDS011;2670;42.720;23.336;2022-07-29T02:41:28;21.33;;;16.87;;
5295;SDS011;2670;42.720;23.336;2022-07-29T02:43:58;31.10;;;19.00;;
5295;SDS011;2670;42.720;23.336;2022-07-29T02:46:30;25.97;;;19.10;;
5295;SDS011;2670;42.720;23.336;2022-07-29T02:49:04;33.53;;;17.53;;
5295;SDS011;2670;42.720;23.336;2022-07-29T02:51:38;31.27;;;19.53;;
5295;SDS011;2670;42.720;23.336;2022-07-29T02:54:09;30.03;;;18.17;;
5295;SDS011;2670;42.720;23.336;2022-07-29T02:56:39;24.30;;;18.40;;
5295;SDS011;2670;42.720;23.336;2022-07-29T02:59:09;30.17;;;19.90;;
5295;SDS011;2670;42.720;23.336;2022-07-29T03:01:38;29.57;;;19.87;;
5295;SDS011;2670;42.720;23.336;2022-07-29T03:04:09;26.70;;;20.07;;
5295;SDS011;2670;42.720;23.336;2022-07-29T03:06:38;33.07;;;19.10;;
5295;SDS011;2670;42.720;23.336;2022-07-29T03:09:07;32.00;;;20.53;;
5295;SDS011;2670;42.720;23.336;2022-07-29T03:11:34;26.87;;;19.40;;
5295;SDS011;2670;42.720;23.336;2022-07-29T03:14:02;27.27;;;19.60;;
5295;SDS011;2670;42.720;23.336;2022-07-29T03:16:30;34.50;;;20.57;;
5295;SDS011;2670;42.720;23.336;2022-07-29T03:19:01;31.13;;;18.90;;
5295;SDS011;2670;42.720;23.336;2022-07-29T03:21:30;23.20;;;17.63;;
5295;SDS011;2670;42.720;23.336;2022-07-29T03:23:57;22.93;;;17.60;;
5295;SDS011;2670;42.720;23.336;2022-07-29T03:26:23;22.37;;;16.70;;
5295;SDS011;2670;42.720;23.336;2022-07-29T03:28:50;23.23;;;17.33;;
5295;SDS011;2670;42.720;23.336;2022-07-29T03:31:17;22.87;;;16.10;;
5295;SDS011;2670;42.720;23.336;2022-07-29T03:33:43;22.40;;;17.07;;
5295;SDS011;2670;42.720;23.336;2022-07-29T03:36:10;21.77;;;16.00;;
5295;SDS011;2670;42.720;23.336;2022-07-29T03:38:39;29.63;;;16.90;;
5295;SDS011;2670;42.720;23.336;2022-07-29T03:41:10;19.20;;;16.20;;
5295;SDS011;2670;42.720;23.336;2022-07-29T03:43:40;28.53;;;17.47;;
5295;SDS011;2670;42.720;23.336;2022-07-29T03:46:09;22.20;;;15.70;;
5295;SDS011;2670;42.720;23.336;2022-07-29T03:48:39;20.03;;;15.60;;
5295;SDS011;2670;42.720;23.336;2022-07-29T03:51:11;21.23;;;15.57;;
5295;SDS011;2670;42.720;23.336;2022-07-29T03:53:40;21.20;;;16.50;;
5295;SDS011;2670;42.720;23.336;2022-07-29T03:56:07;24.40;;;16.97;;
5295;SDS011;2670;42.720;23.336;2022-07-29T03:58:37;22.07;;;16.60;;
5295;SDS011;2670;42.720;23.336;2022-07-29T04:01:04;19.53;;;16.00;;
5295;SDS011;2670;42.720;23.336;2022-07-29T04:03:31;20.37;;;16.10;;
5295;SDS011;2670;42.720;23.336;2022-07-29T04:05:59;21.10;;;15.70;;
5295;SDS011;2670;42.720;23.336;2022-07-29T04:08:27;23.33;;;16.83;;
5295;SDS011;2670;42.720;23.336;2022-07-29T04:10:55;21.23;;;17.90;;
5295;SDS011;2670;42.720;23.336;2022-07-29T04:13:22;25.33;;;17.70;;
5295;SDS011;2670;42.720;23.336;2022-07-29T04:15:52;21.87;;;16.23;;
5295;SDS011;2670;42.720;23.336;2022-07-29T04:18:19;21.97;;;17.20;;
5295;SDS011;2670;42.720;23.336;2022-07-29T04:20:45;26.50;;;17.37;;
5295;SDS011;2670;42.720;23.336;2022-07-29T04:23:12;20.50;;;14.93;;
5295;SDS011;2670;42.720;23.336;2022-07-29T04:25:39;21.10;;;16.57;;
5295;SDS011;2670;42.720;23.336;2022-07-29T04:28:08;18.23;;;14.43;;
5295;SDS011;2670;42.720;23.336;2022-07-29T04:30:36;25.40;;;13.97;;
5295;SDS011;2670;42.720;23.336;2022-07-29T04:33:03;15.83;;;13.80;;
5295;SDS011;2670;42.720;23.336;2022-07-29T04:35:33;22.50;;;14.57;;
5295;SDS011;2670;42.720;23.336;2022-07-29T04:38:01;17.93;;;13.37;;
5295;SDS011;2670;42.720;23.336;2022-07-29T04:40:28;22.30;;;15.00;;
5295;SDS011;2670;42.720;23.336;2022-07-29T04:42:55;19.30;;;14.37;;
5295;SDS011;2670;42.720;23.336;2022-07-29T04:45:23;21.27;;;12.90;;
5295;SDS011;2670;42.720;23.336;2022-07-29T04:47:50;17.53;;;11.83;;
5295;SDS011;2670;42.720;23.336;2022-07-29T04:50:16;17.83;;;12.80;;
5295;SDS011;2670;42.720;23.336;2022-07-29T04:52:43;20.60;;;12.53;;
5295;SDS011;2670;42.720;23.336;2022-07-29T04:55:10;14.20;;;11.10;;
5295;SDS011;2670;42.720;23.336;2022-07-29T04:57:37;17.50;;;11.67;;
5295;SDS011;2670;42.720;23.336;2022-07-29T05:00:04;16.60;;;11.73;;
5295;SDS011;2670;42.720;23.336;2022-07-29T05:02:33;10.53;;;9.10;;
5295;SDS011;2670;42.720;23.336;2022-07-29T05:05:00;15.70;;;9.97;;
5295;SDS011;2670;42.720;23.336;2022-07-29T05:07:27;13.87;;;10.70;;
5295;SDS011;2670;42.720;23.336;2022-07-29T05:09:54;12.73;;;10.60;;
5295;SDS011;2670;42.720;23.336;2022-07-29T05:12:22;13.77;;;10.63;;
5295;SDS011;2670;42.720;23.336;2022-07-29T05:14:48;14.73;;;11.00;;
5295;SDS011;2670;42.720;23.336;2022-07-29T05:17:15;14.27;;;10.60;;
5295;SDS011;2670;42.720;23.336;2022-07-29T05:19:43;19.60;;;11.03;;
5295;SDS011;2670;42.720;23.336;2022-07-29T05:22:10;15.13;;;11.30;;
5295;SDS011;2670;42.720;23.336;2022-07-29T05:24:37;14.93;;;12.00;;
5295;SDS011;2670;42.720;23.336;2022-07-29T05:27:03;15.37;;;10.80;;
5295;SDS011;2670;42.720;23.336;2022-07-29T05:29:30;19.03;;;12.00;;
5295;SDS011;2670;42.720;23.336;2022-07-29T05:31:57;18.73;;;10.83;;
5295;SDS011;2670;42.720;23.336;2022-07-29T05:34:24;18.07;;;10.90;;
5295;SDS011;2670;42.720;23.336;2022-07-29T05:36:52;15.60;;;11.37;;
5295;SDS011;2670;42.720;23.336;2022-07-29T05:39:19;13.77;;;11.53;;
5295;SDS011;2670;42.720;23.336;2022-07-29T05:41:45;23.97;;;10.40;;
5295;SDS011;2670;42.720;23.336;2022-07-29T05:44:12;15.97;;;12.10;;
5295;SDS011;2670;42.720;23.336;2022-07-29T05:46:39;15.53;;;11.27;;
5295;SDS011;2670;42.720;23.336;2022-07-29T05:49:06;19.77;;;12.47;;
5295;SDS011;2670;42.720;23.336;2022-07-29T05:51:33;16.00;;;11.50;;
5295;SDS011;2670;42.720;23.336;2022-07-29T05:54:01;13.63;;;11.03;;
5295;SDS011;2670;42.720;23.336;2022-07-29T05:56:28;15.27;;;10.60;;
5295;SDS011;2670;42.720;23.336;2022-07-29T05:58:55;16.70;;;11.07;;
5295;SDS011;2670;42.720;23.336;2022-07-29T06:01:22;15.03;;;9.27;;
5295;SDS011;2670;42.720;23.336;2022-07-29T06:03:48;13.33;;;9.30;;
5295;SDS011;2670;42.720;23.336;2022-07-29T06:06:16;12.93;;;9.00;;
5295;SDS011;2670;42.720;23.336;2022-07-29T06:08:42;9.77;;;8.37;;
5295;SDS011;2670;42.720;23.336;2022-07-29T06:11:10;12.37;;;8.37;;
5295;SDS011;2670;42.720;23.336;2022-07-29T06:13:37;15.37;;;9.17;;
5295;SDS011;2670;42.720;23.336;2022-07-29T06:16:04;9.47;;;7.43;;
5295;SDS011;2670;42.720;23.336;2022-07-29T06:18:31;13.23;;;7.63;;
5295;SDS011;2670;42.720;23.336;2022-07-29T06:20:58;11.73;;;6.93;;
5295;SDS011;2670;42.720;23.336;2022-07-29T06:23:24;9.87;;;6.43;;
5295;SDS011;2670;42.720;23.336;2022-07-29T06:25:51;9.00;;;6.83;;
5295;SDS011;2670;42.720;23.336;2022-07-29T06:28:19;9.03;;;7.30;;
5295;SDS011;2670;42.720;23.336;2022-07-29T06:30:46;14.47;;;7.43;;
5295;SDS011;2670;42.720;23.336;2022-07-29T06:33:16;8.60;;;5.67;;
5295;SDS011;2670;42.720;23.336;2022-07-29T06:35:43;5.93;;;5.33;;
5295;SDS011;2670;42.720;23.336;2022-07-29T06:38:12;9.60;;;6.13;;
5295;SDS011;2670;42.720;23.336;2022-07-29T06:40:40;14.80;;;7.13;;
5295;SDS011;2670;42.720;23.336;2022-07-29T06:43:26;8.27;;;5.80;;
5295;SDS011;2670;42.720;23.336;2022-07-29T06:45:54;7.73;;;6.43;;
5295;SDS011;2670;42.720;23.336;2022-07-29T06:48:21;7.70;;;5.90;;
5295;SDS011;2670;42.720;23.336;2022-07-29T06:50:47;8.07;;;5.40;;
5295;SDS011;2670;42.720;23.336;2022-07-29T06:53:14;10.13;;;5.47;;
5295;SDS011;2670;42.720;23.336;2022-07-29T06:55:41;6.63;;;5.40;;
5295;SDS011;2670;42.720;23.336;2022-07-29T06:58:08;6.87;;;4.97;;
5295;SDS011;2670;42.720;23.336;2022-07-29T07:00:37;8.47;;;5.00;;
5295;SDS011;2670;42.720;23.336;2022-07-29T07:03:04;8.97;;;5.07;;
5295;SDS011;2670;42.720;23.336;2022-07-29T07:05:30;9.90;;;5.23;;
5295;SDS011;2670;42.720;23.336;2022-07-29T07:07:57;5.00;;;4.37;;
5295;SDS011;2670;42.720;23.336;2022-07-29T07:10:24;4.67;;;4.27;;
5295;SDS011;2670;42.720;23.336;2022-07-29T07:12:51;9.90;;;4.67;;
5295;SDS011;2670;42.720;23.336;2022-07-29T07:15:17;10.90;;;4.80;;
5295;SDS011;2670;42.720;23.336;2022-07-29T07:17:48;8.90;;;4.70;;
5295;SDS011;2670;42.720;23.336;2022-07-29T07:20:15;5.47;;;4.57;;
5295;SDS011;2670;42.720;23.336;2022-07-29T07:22:42;8.20;;;5.17;;
5295;SDS011;2670;42.720;23.336;2022-07-29T07:25:09;6.47;;;4.20;;
5295;SDS011;2670;42.720;23.336;2022-07-29T07:27:36;5.13;;;4.53;;
5295;SDS011;2670;42.720;23.336;2022-07-29T07:30:04;12.07;;;4.90;;
5295;SDS011;2670;42.720;23.336;2022-07-29T07:32:33;6.60;;;5.20;;
5295;SDS011;2670;42.720;23.336;2022-07-29T07:35:02;6.80;;;4.83;;
5295;SDS011;2670;42.720;23.336;2022-07-29T07:37:29;7.40;;;5.10;;
5295;SDS011;2670;42.720;23.336;2022-07-29T07:39:56;6.93;;;4.70;;
5295;SDS011;2670;42.720;23.336;2022-07-29T07:42:23;10.50;;;5.10;;
5295;SDS011;2670;42.720;23.336;2022-07-29T07:44:50;7.87;;;5.43;;
5295;SDS011;2670;42.720;23.336;2022-07-29T07:47:17;5.27;;;4.70;;
5295;SDS011;2670;42.720;23.336;2022-07-29T07:49:45;8.07;;;5.80;;
5295;SDS011;2670;42.720;23.336;2022-07-29T07:52:14;5.03;;;4.40;;
5295;SDS011;2670;42.720;23.336;2022-07-29T07:54:41;7.50;;;5.10;;
5295;SDS011;2670;42.720;23.336;2022-07-29T07:57:09;5.80;;;4.67;;
5295;SDS011;2670;42.720;23.336;2022-07-29T07:59:36;6.47;;;4.63;;
5295;SDS011;2670;42.720;23.336;2022-07-29T08:02:03;4.97;;;3.90;;
5295;SDS011;2670;42.720;23.336;2022-07-29T08:04:30;9.10;;;4.60;;
5295;SDS011;2670;42.720;23.336;2022-07-29T08:06:57;8.53;;;4.97;;
5295;SDS011;2670;42.720;23.336;2022-07-29T08:09:27;5.70;;;5.13;;
5295;SDS011;2670;42.720;23.336;2022-07-29T08:11:54;7.20;;;5.17;;
5295;SDS011;2670;42.720;23.336;2022-07-29T08:14:21;8.43;;;4.80;;
5295;SDS011;2670;42.720;23.336;2022-07-29T08:16:48;5.00;;;4.37;;
5295;SDS011;2670;42.720;23.336;2022-07-29T08:19:16;5.43;;;4.23;;
5295;SDS011;2670;42.720;23.336;2022-07-29T08:21:42;5.83;;;4.20;;
5295;SDS011;2670;42.720;23.336;2022-07-29T08:24:09;4.83;;;4.30;;
5295;SDS011;2670;42.720;23.336;2022-07-29T08:26:55;7.40;;;4.80;;
5295;SDS011;2670;42.720;23.336;2022-07-29T08:29:21;6.90;;;4.30;;
5295;SDS011;2670;42.720;23.336;2022-07-29T08:31:48;14.37;;;4.50;;
5295;SDS011;2670;42.720;23.336;2022-07-29T08:34:15;4.40;;;4.00;;
5295;SDS011;2670;42.720;23.336;2022-07-29T08:36:42;5.17;;;3.83;;
5295;SDS011;2670;42.720;23.336;2022-07-29T08:39:08;4.40;;;3.80;;
5295;SDS011;2670;42.720;23.336;2022-07-29T08:41:35;7.67;;;3.90;;
5295;SDS011;2670;42.720;23.336;2022-07-29T08:44:04;5.37;;;4.10;;
5295;SDS011;2670;42.720;23.336;2022-07-29T08:46:30;5.00;;;3.97;;
5295;SDS011;2670;42.720;23.336;2022-07-29T08:48:57;10.83;;;4.43;;
5295;SDS011;2670;42.720;23.336;2022-07-29T08:51:24;5.53;;;3.87;;
5295;SDS011;2670;42.720;23.336;2022-07-29T08:53:52;4.53;;;4.13;;
5295;SDS011;2670;42.720;23.336;2022-07-29T08:56:21;4.60;;;4.20;;
5295;SDS011;2670;42.720;23.336;2022-07-29T08:58:48;7.13;;;3.90;;
5295;SDS011;2670;42.720;23.336;2022-07-29T09:01:17;8.13;;;4.70;;
5295;SDS011;2670;42.720;23.336;2022-07-29T09:03:48;4.47;;;4.03;;
5295;SDS011;2670;42.720;23.336;2022-07-29T09:06:17;6.07;;;4.13;;
5295;SDS011;2670;42.720;23.336;2022-07-29T09:08:47;7.70;;;4.03;;
5295;SDS011;2670;42.720;23.336;2022-07-29T09:11:14;4.17;;;3.73;;
5295;SDS011;2670;42.720;23.336;2022-07-29T09:13:41;4.50;;;4.10;;
5295;SDS011;2670;42.720;23.336;2022-07-29T09:16:08;4.50;;;3.70;;
5295;SDS011;2670;42.720;23.336;2022-07-29T09:18:37;6.73;;;4.10;;
5295;SDS011;2670;42.720;23.336;2022-07-29T09:21:05;3.37;;;3.07;;
5295;SDS011;2670;42.720;23.336;2022-07-29T09:24:01;5.77;;;3.97;;
5295;SDS011;2670;42.720;23.336;2022-07-29T09:26:32;5.50;;;3.73;;
5295;SDS011;2670;42.720;23.336;2022-07-29T09:29:01;4.60;;;4.00;;
5295;SDS011;2670;42.720;23.336;2022-07-29T09:31:35;4.07;;;3.70;;
5295;SDS011;2670;42.720;23.336;2022-07-29T09:34:04;8.50;;;4.60;;
5295;SDS011;2670;42.720;23.336;2022-07-29T09:36:38;6.87;;;4.13;;
5295;SDS011;2670;42.720;23.336;2022-07-29T09:39:06;5.43;;;4.37;;
5295;SDS011;2670;42.720;23.336;2022-07-29T09:44:17;5.77;;;3.90;;
5295;SDS011;2670;42.720;23.336;2022-07-29T09:46:52;7.90;;;3.83;;
5295;SDS011;2670;42.720;23.336;2022-07-29T09:49:21;5.17;;;4.37;;
5295;SDS011;2670;42.720;23.336;2022-07-29T09:51:58;5.40;;;4.40;;
5295;SDS011;2670;42.720;23.336;2022-07-29T09:54:26;5.83;;;4.40;;
5295;SDS011;2670;42.720;23.336;2022-07-29T09:56:54;4.70;;;4.07;;
5295;SDS011;2670;42.720;23.336;2022-07-29T09:59:21;5.47;;;4.00;;
5295;SDS011;2670;42.720;23.336;2022-07-29T10:01:51;4.10;;;3.70;;
5295;SDS011;2670;42.720;23.336;2022-07-29T10:04:18;5.80;;;3.70;;
5295;SDS011;2670;42.720;23.336;2022-07-29T10:06:56;7.37;;;3.73;;
5295;SDS011;2670;42.720;23.336;2022-07-29T10:09:24;3.30;;;3.00;;
5295;SDS011;2670;42.720;23.336;2022-07-29T10:12:04;6.47;;;3.17;;
5295;SDS011;2670;42.720;23.336;2022-07-29T10:14:33;4.33;;;3.93;;
5295;SDS011;2670;42.720;23.336;2022-07-29T10:17:00;3.77;;;3.37;;
5295;SDS011;2670;42.720;23.336;2022-07-29T10:19:28;5.80;;;3.63;;
5295;SDS011;2670;42.720;23.336;2022-07-29T10:21:58;5.60;;;4.23;;
5295;SDS011;2670;42.720;23.336;2022-07-29T10:24:25;6.70;;;3.73;;
5295;SDS011;2670;42.720;23.336;2022-07-29T10:26:53;8.07;;;4.00;;
5295;SDS011;2670;42.720;23.336;2022-07-29T10:29:20;7.83;;;3.43;;
5295;SDS011;2670;42.720;23.336;2022-07-29T10:31:49;6.93;;;3.97;;
5295;SDS011;2670;42.720;23.336;2022-07-29T10:34:28;8.90;;;3.60;;
5295;SDS011;2670;42.720;23.336;2022-07-29T10:37:07;11.37;;;3.70;;
5295;SDS011;2670;42.720;23.336;2022-07-29T10:39:47;5.60;;;3.60;;
5295;SDS011;2670;42.720;23.336;2022-07-29T10:42:23;4.20;;;3.43;;
5295;SDS011;2670;42.720;23.336;2022-07-29T10:44:51;6.30;;;3.17;;
5295;SDS011;2670;42.720;23.336;2022-07-29T10:47:20;8.80;;;4.30;;
5295;SDS011;2670;42.720;23.336;2022-07-29T10:49:55;5.70;;;3.10;;
5295;SDS011;2670;42.720;23.336;2022-07-29T10:52:24;8.97;;;4.00;;
5295;SDS011;2670;42.720;23.336;2022-07-29T10:55:32;9.30;;;3.60;;
5295;SDS011;2670;42.720;23.336;2022-07-29T10:58:10;4.20;;;3.80;;
5295;SDS011;2670;42.720;23.336;2022-07-29T11:00:38;4.00;;;3.37;;
5295;SDS011;2670;42.720;23.336;2022-07-29T11:03:05;3.90;;;3.53;;
5295;SDS011;2670;42.720;23.336;2022-07-29T11:08:23;5.07;;;3.73;;
5295;SDS011;2670;42.720;23.336;2022-07-29T11:10:51;6.73;;;4.00;;
5295;SDS011;2670;42.720;23.336;2022-07-29T11:16:15;10.00;;;3.70;;
5295;SDS011;2670;42.720;23.336;2022-07-29T11:21:46;7.40;;;4.00;;
5295;SDS011;2670;42.720;23.336;2022-07-29T11:24:17;4.33;;;3.93;;
5295;SDS011;2670;42.720;23.336;2022-07-29T11:26:46;8.60;;;4.47;;
5295;SDS011;2670;42.720;23.336;2022-07-29T11:29:32;5.90;;;4.07;;
5295;SDS011;2670;42.720;23.336;2022-07-29T11:32:08;5.00;;;4.10;;
5295;SDS011;2670;42.720;23.336;2022-07-29T11:34:36;6.67;;;4.30;;
5295;SDS011;2670;42.720;23.336;2022-07-29T11:37:21;8.83;;;4.20;;
5295;SDS011;2670;42.720;23.336;2022-07-29T11:42:46;4.63;;;4.13;;
5295;SDS011;2670;42.720;23.336;2022-07-29T11:45:14;4.80;;;4.20;;
5295;SDS011;2670;42.720;23.336;2022-07-29T11:47:47;4.90;;;4.10;;
5295;SDS011;2670;42.720;23.336;2022-07-29T11:50:18;4.90;;;4.37;;
5295;SDS011;2670;42.720;23.336;2022-07-29T11:52:53;9.70;;;4.37;;
5295;SDS011;2670;42.720;23.336;2022-07-29T11:55:22;5.57;;;4.07;;
5295;SDS011;2670;42.720;23.336;2022-07-29T11:57:50;5.63;;;4.50;;
5295;SDS011;2670;42.720;23.336;2022-07-29T12:00:22;7.30;;;4.77;;
5295;SDS011;2670;42.720;23.336;2022-07-29T12:02:52;6.80;;;4.50;;
5295;SDS011;2670;42.720;23.336;2022-07-29T12:05:19;5.60;;;5.10;;
5295;SDS011;2670;42.720;23.336;2022-07-29T12:07:47;5.60;;;5.00;;
5295;SDS011;2670;42.720;23.336;2022-07-29T12:10:14;7.07;;;5.00;;
5295;SDS011;2670;42.720;23.336;2022-07-29T12:12:43;6.23;;;4.60;;
5295;SDS011;2670;42.720;23.336;2022-07-29T12:15:18;6.13;;;4.10;;
5295;SDS011;2670;42.720;23.336;2022-07-29T12:17:46;6.13;;;5.07;;
5295;SDS011;2670;42.720;23.336;2022-07-29T12:20:13;9.83;;;5.10;;
5295;SDS011;2670;42.720;23.336;2022-07-29T12:22:48;8.33;;;5.30;;
5295;SDS011;2670;42.720;23.336;2022-07-29T12:25:15;5.23;;;4.73;;
5295;SDS011;2670;42.720;23.336;2022-07-29T12:27:44;5.57;;;4.80;;
5295;SDS011;2670;42.720;23.336;2022-07-29T12:30:13;6.90;;;5.10;;
5295;SDS011;2670;42.720;23.336;2022-07-29T12:32:41;7.63;;;5.40;;
5295;SDS011;2670;42.720;23.336;2022-07-29T12:35:09;6.13;;;5.23;;
5295;SDS011;2670;42.720;23.336;2022-07-29T12:37:39;5.87;;;5.00;;
5295;SDS011;2670;42.720;23.336;2022-07-29T12:40:08;5.50;;;4.97;;
5295;SDS011;2670;42.720;23.336;2022-07-29T12:42:36;5.63;;;4.87;;
5295;SDS011;2670;42.720;23.336;2022-07-29T12:45:05;6.37;;;4.97;;
5295;SDS011;2670;42.720;23.336;2022-07-29T12:47:33;8.37;;;5.60;;
5295;SDS011;2670;42.720;23.336;2022-07-29T12:50:09;7.10;;;5.03;;
5295;SDS011;2670;42.720;23.336;2022-07-29T12:52:39;5.33;;;4.77;;
5295;SDS011;2670;42.720;23.336;2022-07-29T12:55:06;6.07;;;5.47;;
5295;SDS011;2670;42.720;23.336;2022-07-29T12:57:44;5.67;;;5.07;;
5295;SDS011;2670;42.720;23.336;2022-07-29T13:00:13;6.63;;;5.97;;
5295;SDS011;2670;42.720;23.336;2022-07-29T13:02:42;10.57;;;6.03;;
5295;SDS011;2670;42.720;23.336;2022-07-29T13:05:10;8.70;;;5.60;;
5295;SDS011;2670;42.720;23.336;2022-07-29T13:07:37;8.90;;;5.53;;
5295;SDS011;2670;42.720;23.336;2022-07-29T13:10:12;7.13;;;5.87;;
5295;SDS011;2670;42.720;23.336;2022-07-29T13:15:29;5.73;;;5.20;;
5295;SDS011;2670;42.720;23.336;2022-07-29T13:17:56;5.83;;;5.13;;
5295;SDS011;2670;42.720;23.336;2022-07-29T13:20:23;7.57;;;5.37;;
5295;SDS011;2670;42.720;23.336;2022-07-29T13:22:52;5.57;;;5.07;;
5295;SDS011;2670;42.720;23.336;2022-07-29T13:25:23;5.20;;;4.80;;
5295;SDS011;2670;42.720;23.336;2022-07-29T13:27:50;5.57;;;5.03;;
5295;SDS011;2670;42.720;23.336;2022-07-29T13:30:19;7.13;;;5.30;;
5295;SDS011;2670;42.720;23.336;2022-07-29T13:32:48;6.67;;;4.23;;
5295;SDS011;2670;42.720;23.336;2022-07-29T13:35:15;5.50;;;5.00;;
5295;SDS011;2670;42.720;23.336;2022-07-29T13:37:42;5.80;;;4.80;;
5295;SDS011;2670;42.720;23.336;2022-07-29T13:40:09;8.47;;;5.60;;
5295;SDS011;2670;42.720;23.336;2022-07-29T13:42:37;8.13;;;5.20;;
5295;SDS011;2670;42.720;23.336;2022-07-29T13:45:05;6.33;;;5.17;;
5295;SDS011;2670;42.720;23.336;2022-07-29T13:47:32;8.80;;;5.50;;
5295;SDS011;2670;42.720;23.336;2022-07-29T13:50:01;7.13;;;4.97;;
5295;SDS011;2670;42.720;23.336;2022-07-29T13:52:28;12.63;;;5.50;;
5295;SDS011;2670;42.720;23.336;2022-07-29T13:54:55;5.63;;;4.80;;
5295;SDS011;2670;42.720;23.336;2022-07-29T13:57:22;13.40;;;5.50;;
5295;SDS011;2670;42.720;23.336;2022-07-29T13:59:49;10.30;;;4.80;;
5295;SDS011;2670;42.720;23.336;2022-07-29T14:02:16;5.97;;;5.37;;
5295;SDS011;2670;42.720;23.336;2022-07-29T14:04:43;5.60;;;4.83;;
5295;SDS011;2670;42.720;23.336;2022-07-29T14:07:11;5.33;;;4.77;;
5295;SDS011;2670;42.720;23.336;2022-07-29T14:09:38;8.30;;;6.20;;
5295;SDS011;2670;42.720;23.336;2022-07-29T14:12:05;10.17;;;5.53;;
5295;SDS011;2670;42.720;23.336;2022-07-29T14:14:32;11.60;;;5.93;;
5295;SDS011;2670;42.720;23.336;2022-07-29T14:17:00;8.30;;;5.43;;
5295;SDS011;2670;42.720;23.336;2022-07-29T14:19:28;5.47;;;4.83;;
5295;SDS011;2670;42.720;23.336;2022-07-29T14:21:54;7.00;;;5.30;;
5295;SDS011;2670;42.720;23.336;2022-07-29T14:24:22;9.40;;;5.00;;
5295;SDS011;2670;42.720;23.336;2022-07-29T14:26:49;7.50;;;6.20;;
5295;SDS011;2670;42.720;23.336;2022-07-29T14:29:16;9.43;;;5.23;;
5295;SDS011;2670;42.720;23.336;2022-07-29T14:31:42;6.60;;;5.13;;
5295;SDS011;2670;42.720;23.336;2022-07-29T14:34:09;5.77;;;5.17;;
5295;SDS011;2670;42.720;23.336;2022-07-29T14:36:36;6.57;;;5.97;;
5295;SDS011;2670;42.720;23.336;2022-07-29T14:39:03;6.67;;;5.70;;
5295;SDS011;2670;42.720;23.336;2022-07-29T14:41:31;11.30;;;5.80;;
5295;SDS011;2670;42.720;23.336;2022-07-29T14:43:58;6.13;;;5.53;;
5295;SDS011;2670;42.720;23.336;2022-07-29T14:46:26;8.73;;;5.63;;
5295;SDS011;2670;42.720;23.336;2022-07-29T14:48:52;5.50;;;5.00;;
5295;SDS011;2670;42.720;23.336;2022-07-29T14:51:20;6.80;;;5.13;;
5295;SDS011;2670;42.720;23.336;2022-07-29T14:53:47;6.30;;;5.70;;
5295;SDS011;2670;42.720;23.336;2022-07-29T14:56:14;10.60;;;5.30;;
5295;SDS011;2670;42.720;23.336;2022-07-29T14:58:42;6.43;;;5.83;;
5295;SDS011;2670;42.720;23.336;2022-07-29T15:01:08;6.10;;;5.50;;
5295;SDS011;2670;42.720;23.336;2022-07-29T15:03:35;7.13;;;5.43;;
5295;SDS011;2670;42.720;23.336;2022-07-29T15:06:02;5.60;;;5.10;;
5295;SDS011;2670;42.720;23.336;2022-07-29T15:08:29;5.87;;;5.30;;
5295;SDS011;2670;42.720;23.336;2022-07-29T15:10:56;6.20;;;5.57;;
5295;SDS011;2670;42.720;23.336;2022-07-29T15:13:24;7.00;;;5.73;;
5295;SDS011;2670;42.720;23.336;2022-07-29T15:15:52;8.70;;;5.63;;
5295;SDS011;2670;42.720;23.336;2022-07-29T15:18:19;6.70;;;5.90;;